Time;durP1;ratioP1;P1;durP2;ratioP2;P2;SDS_P1;SDS_P2;PMS_P1;PMS_P2;Temp;Humidity;BMP_temperature;BMP_pressure;BME280_temperature;BME280_humidity;BME280_pressure;Samples;Min_cycle;Max_cycle;Signal;HPM_P1;HPM_P2
2022/11/01 00:02:35;;;;;;;18.80;10.50;;;;;;;13.84;100.00;100764.85;636037;1308;142979;-84
2022/11/01 00:17:38;;;;;;;19.30;10.10;;;;;;;13.91;100.00;100756.46;636132;1304;140642;-85
2022/11/01 00:32:42;;;;;;;20.00;9.50;;;;;;;14.00;100.00;100753.08;636363;1306;140205;-85
2022/11/01 00:47:46;;;;;;;17.00;9.60;;;;;;;14.00;100.00;100745.43;636373;1292;139899;-85
2022/11/01 01:02:49;;;;;;;15.00;8.50;;;;;;;13.99;100.00;100737.14;636400;1316;139505;-84
2022/11/01 01:17:52;;;;;;;15.90;7.40;;;;;;;13.98;100.00;100722.63;636122;1300;140144;-84
2022/11/01 01:32:55;;;;;;;16.10;8.70;;;;;;;13.94;100.00;100715.26;637438;1301;139303;-84
2022/11/01 01:48:22;;;;;;;11.40;6.60;;;;;;;13.91;100.00;100703.42;636962;1309;139704;-84
2022/11/01 02:03:36;;;;;;;14.50;7.00;;;;;;;13.95;100.00;100691.46;636078;1312;139782;-84
2022/11/01 02:19:09;;;;;;;18.90;10.10;;;;;;;13.89;100.00;100680.22;635885;1303;140146;-83
2022/11/01 02:34:28;;;;;;;27.40;10.80;;;;;;;13.70;100.00;100673.42;635976;1310;140012;-84
2022/11/01 02:49:36;;;;;;;19.70;9.80;;;;;;;13.61;100.00;100670.53;636173;1301;141440;-84
2022/11/01 03:04:39;;;;;;;18.50;9.70;;;;;;;13.62;100.00;100660.46;636419;1301;139827;-84
2022/11/01 03:19:59;;;;;;;18.20;9.20;;;;;;;13.73;100.00;100664.71;636402;1308;139568;-84
2022/11/01 03:35:04;;;;;;;21.80;10.60;;;;;;;13.68;100.00;100660.06;636314;1306;139634;-84
2022/11/01 03:50:27;;;;;;;17.00;8.90;;;;;;;13.58;100.00;100653.23;636112;1301;140398;-84
2022/11/01 04:05:32;;;;;;;22.90;10.80;;;;;;;13.64;100.00;100637.75;636693;1302;141287;-85
2022/11/01 04:20:36;;;;;;;19.70;10.00;;;;;;;13.60;100.00;100640.44;636249;1314;140272;-84
2022/11/01 04:35:39;;;;;;;16.10;8.60;;;;;;;13.60;100.00;100650.84;636609;1312;140258;-84
2022/11/01 04:50:44;;;;;;;15.40;10.00;;;;;;;13.66;100.00;100650.89;636384;1300;139838;-84
2022/11/01 05:05:47;;;;;;;27.00;11.60;;;;;;;13.62;100.00;100624.81;637877;1294;141914;-85
2022/11/01 05:20:50;;;;;;;17.40;9.20;;;;;;;13.46;100.00;100619.30;638005;1300;139354;-85
2022/11/01 05:35:53;;;;;;;20.70;11.70;;;;;;;13.52;100.00;100587.82;638424;1301;140135;-85
2022/11/01 05:50:57;;;;;;;18.50;9.60;;;;;;;13.51;100.00;100584.58;637830;1303;141090;-85
2022/11/01 06:06:00;;;;;;;20.40;10.50;;;;;;;13.49;100.00;100578.04;638067;1294;139623;-84
2022/11/01 06:21:03;;;;;;;15.80;9.00;;;;;;;13.47;100.00;100588.29;638469;1301;140818;-84
2022/11/01 06:36:06;;;;;;;18.40;9.80;;;;;;;13.42;100.00;100589.62;639218;1300;139564;-85
2022/11/01 06:51:09;;;;;;;17.00;9.90;;;;;;;13.24;100.00;100622.39;637253;1288;1197777;-84
2022/11/01 07:06:13;;;;;;;92.00;62.80;;;;;;;13.32;100.00;100620.36;637914;1306;140399;-85
2022/11/01 07:21:16;;;;;;;64.40;28.30;;;;;;;13.25;100.00;100611.40;637089;1300;139519;-85
2022/11/01 07:36:20;;;;;;;64.80;27.30;;;;;;;13.29;100.00;100592.91;637178;1301;140343;-85
2022/11/01 07:51:24;;;;;;;29.80;14.50;;;;;;;13.32;100.00;100549.91;638252;1316;139350;-86
2022/11/01 08:06:27;;;;;;;27.50;14.40;;;;;;;13.31;100.00;100527.73;636632;1314;139426;-85
2022/11/01 08:21:30;;;;;;;63.70;26.30;;;;;;;13.22;100.00;100526.34;636227;1301;139681;-85
2022/11/01 08:36:34;;;;;;;40.90;19.30;;;;;;;13.39;100.00;100515.52;636720;1301;139979;-84
2022/11/01 08:51:38;;;;;;;33.90;16.40;;;;;;;13.40;100.00;100491.27;639288;1309;141688;-86
2022/11/01 09:06:42;;;;;;;59.80;26.50;;;;;;;13.46;100.00;100498.21;640753;1302;139939;-85
2022/11/01 09:21:45;;;;;;;32.10;18.10;;;;;;;13.67;100.00;100476.29;636281;1305;140400;-85
2022/11/01 09:36:48;;;;;;;28.50;16.80;;;;;;;13.73;100.00;100451.71;636887;1305;139682;-84
2022/11/01 09:51:53;;;;;;;42.50;19.70;;;;;;;13.62;100.00;100461.48;638790;1302;139614;-86
2022/11/01 10:07:03;;;;;;;128.60;44.50;;;;;;;13.71;100.00;100451.14;640819;1300;141001;-83
2022/11/01 10:22:38;;;;;;;187.60;80.40;;;;;;;13.88;100.00;100453.70;639876;1300;141400;-85
2022/11/01 10:37:52;;;;;;;104.50;53.70;;;;;;;14.03;100.00;100498.45;638045;1305;140413;-85
2022/11/01 10:53:18;;;;;;;38.40;21.60;;;;;;;13.80;100.00;100513.91;636921;1300;140900;-85
2022/11/01 11:08:23;;;;;;;34.40;23.20;;;;;;;13.71;100.00;100514.84;637217;1316;139509;-86
2022/11/01 11:23:31;;;;;;;30.20;19.00;;;;;;;13.65;100.00;100508.19;636659;1315;139948;-82
2022/11/01 11:38:40;;;;;;;35.40;20.00;;;;;;;13.87;100.00;100493.73;637068;1300;139363;-84
2022/11/01 11:53:44;;;;;;;;;;;;;;;14.04;100.00;100478.50;637955;1301;139740;-83
2022/11/01 12:08:50;;;;;;;55.30;24.50;;;;;;;14.03;100.00;100475.98;637004;1308;125997;-83
2022/11/01 12:24:02;;;;;;;45.60;24.90;;;;;;;14.19;100.00;100449.42;637428;1315;139594;-85
2022/11/01 12:39:37;;;;;;;33.20;16.50;;;;;;;14.42;100.00;100474.20;638432;1316;139604;-84
2022/11/01 12:54:49;;;;;;;57.70;37.30;;;;;;;14.65;100.00;100469.54;637011;1307;140260;-85
2022/11/01 13:10:32;;;;;;;69.00;29.20;;;;;;;14.70;100.00;100472.73;636417;1316;139406;-84
2022/11/01 13:25:45;;;;;;;57.40;29.10;;;;;;;14.79;100.00;100478.76;637716;1316;140277;-84
2022/11/01 13:40:54;;;;;;;53.00;24.70;;;;;;;14.68;100.00;100484.22;638157;1309;140321;-84
2022/11/01 13:56:01;;;;;;;;;;;;;;;14.64;100.00;100479.89;640761;1316;139774;-84
2022/11/01 14:11:06;;;;;;;95.80;42.60;;;;;;;14.68;100.00;100478.02;637569;1308;125463;-85
2022/11/01 14:26:22;;;;;;;71.20;33.50;;;;;;;14.75;100.00;100479.84;637240;1301;139456;-85
2022/11/01 14:41:31;;;;;;;70.90;29.70;;;;;;;14.61;100.00;100494.65;637927;1310;139650;-84
2022/11/01 14:56:35;;;;;;;77.10;33.00;;;;;;;14.58;100.00;100480.70;637568;1308;140807;-86
2022/11/01 15:11:44;;;;;;;;;;;;;;;14.53;100.00;100451.91;637403;1315;139559;-86
2022/11/01 15:26:47;;;;;;;85.10;41.00;;;;;;;14.30;100.00;100459.92;637405;1308;125839;-85
2022/11/01 15:41:53;;;;;;;75.20;36.00;;;;;;;14.02;100.00;100487.44;639871;1291;139895;-85
2022/11/01 15:57:01;;;;;;;80.20;40.80;;;;;;;14.07;100.00;100478.56;640351;1298;139511;-84
2022/11/01 16:12:22;;;;;;;66.10;33.70;;;;;;;14.16;100.00;100471.66;639599;1296;139638;-85
2022/11/01 16:27:27;;;;;;;75.50;33.80;;;;;;;14.08;100.00;100473.33;639877;1288;140052;-85
2022/11/01 16:42:31;;;;;;;65.80;32.50;;;;;;;13.99;100.00;100476.70;640096;1312;139983;-85
2022/11/01 16:57:38;;;;;;;66.70;31.30;;;;;;;14.14;100.00;100477.83;640259;1290;139863;-85
2022/11/01 17:12:41;;;;;;;65.90;29.20;;;;;;;14.34;100.00;100485.75;641147;1297;139999;-85
2022/11/01 17:27:49;;;;;;;78.50;37.00;;;;;;;14.23;100.00;100484.67;641177;1297;140082;-86
2022/11/01 17:42:53;;;;;;;76.00;33.30;;;;;;;14.24;100.00;100480.04;640156;1291;141427;-84
2022/11/01 17:58:13;;;;;;;76.00;31.70;;;;;;;14.26;100.00;100482.98;640585;1296;140225;-86
2022/11/01 18:13:24;;;;;;;116.40;50.60;;;;;;;14.19;100.00;100498.44;640431;1297;139416;-84
2022/11/01 18:28:31;;;;;;;79.90;36.20;;;;;;;14.13;100.00;100504.16;639535;1307;140743;-85
2022/11/01 18:43:39;;;;;;;169.30;59.50;;;;;;;14.17;100.00;100499.38;640391;1312;139754;-86
2022/11/01 18:58:42;;;;;;;99.30;40.50;;;;;;;14.22;100.00;100498.34;639609;1303;1406994;-86
2022/11/01 19:13:49;;;;;;;84.80;36.00;;;;;;;14.26;100.00;100494.56;643916;1301;139651;-85
2022/11/01 19:28:54;;;;;;;101.10;39.90;;;;;;;14.38;100.00;100489.53;641400;1308;139716;-85
2022/11/01 19:44:10;;;;;;;101.00;40.70;;;;;;;14.19;100.00;100492.06;641424;1297;140060;-84
2022/11/01 19:59:14;;;;;;;107.00;46.30;;;;;;;14.13;100.00;100491.61;645992;1297;142356;-84
2022/11/01 20:14:19;;;;;;;87.30;38.10;;;;;;;14.21;100.00;100500.85;642667;1304;140207;-84
2022/11/01 20:36:14;;;;;;;110.50;40.60;;;;;;;14.16;100.00;100506.48;623757;1331;1019314;-86
2022/11/01 20:51:17;;;;;;;116.50;41.30;;;;;;;14.11;100.00;100508.44;632880;1311;139210;-85
2022/11/01 21:06:23;;;;;;;113.90;41.00;;;;;;;14.16;100.00;100514.25;632931;1310;140499;-85
2022/11/01 21:21:37;;;;;;;121.60;36.90;;;;;;;14.17;100.00;100513.08;632379;1311;140238;-85
2022/11/01 21:36:52;;;;;;;124.20;39.40;;;;;;;14.20;100.00;100513.13;634456;1308;139886;-85
2022/11/01 21:51:59;;;;;;;139.20;43.70;;;;;;;14.16;100.00;100503.52;632962;1308;141855;-84
2022/11/01 22:07:04;;;;;;;160.20;47.20;;;;;;;14.14;100.00;100508.98;632994;1310;138831;-85
2022/11/01 22:22:08;;;;;;;172.10;52.20;;;;;;;14.12;100.00;100516.77;637394;1302;139130;-85
2022/11/01 22:37:12;;;;;;;202.00;59.00;;;;;;;14.09;100.00;100517.18;635986;1304;140459;-85
2022/11/01 22:52:31;;;;;;;216.60;62.40;;;;;;;14.12;100.00;100521.47;636692;1310;139876;-84
2022/11/01 23:07:36;;;;;;;;;;;;;;;14.13;100.00;100519.56;636281;1303;139724;-85
2022/11/01 23:22:40;;;;;;;250.80;65.40;;;;;;;14.16;100.00;100528.47;636003;1314;126145;-85
2022/11/01 23:37:43;;;;;;;243.00;69.80;;;;;;;14.19;100.00;100529.20;636195;1317;140420;-85
2022/11/01 23:53:04;;;;;;;229.60;63.30;;;;;;;14.31;100.00;100526.83;636402;1316;140423;-85
